createdAt,value
2023-01-28T00:01:31.255Z,16.83
2023-01-28T00:03:59.000Z,17.98
2023-01-28T00:06:26.649Z,16.50
2023-01-28T00:08:54.812Z,17.33
2023-01-28T00:11:23.406Z,15.07
2023-01-28T00:13:52.517Z,15.50
2023-01-28T00:16:22.604Z,15.93
2023-01-28T00:18:50.459Z,16.40
2023-01-28T00:21:18.054Z,16.38
2023-01-28T00:23:49.952Z,15.63
2023-01-28T00:26:17.657Z,16.10
2023-01-28T00:28:45.778Z,17.38
2023-01-28T00:31:17.042Z,18.40
2023-01-28T00:33:46.714Z,17.00
2023-01-28T00:36:15.256Z,17.10
2023-01-28T00:38:43.501Z,18.25
2023-01-28T00:41:12.919Z,17.70
2023-01-28T00:43:41.155Z,18.00
2023-01-28T00:46:09.589Z,20.15
2023-01-28T00:48:37.680Z,17.73
2023-01-28T00:51:07.519Z,18.60
2023-01-28T00:53:36.136Z,18.98
2023-01-28T00:56:04.161Z,17.63
2023-01-28T00:58:31.959Z,20.08
2023-01-28T01:01:08.402Z,16.20
2023-01-28T01:03:36.048Z,19.60
2023-01-28T01:06:03.797Z,20.02
2023-01-28T01:08:35.937Z,18.35
2023-01-28T01:11:04.615Z,19.90
2023-01-28T01:13:32.713Z,20.25
2023-01-28T01:16:05.587Z,19.65
2023-01-28T01:18:34.103Z,20.25
2023-01-28T01:21:02.269Z,19.60
2023-01-28T01:23:32.222Z,18.40
2023-01-28T01:26:00.504Z,19.75
2023-01-28T01:28:28.088Z,20.23
2023-01-28T01:31:00.560Z,19.67
2023-01-28T01:33:29.531Z,20.42
2023-01-28T01:35:57.566Z,19.17
2023-01-28T01:38:25.384Z,19.80
2023-01-28T01:40:57.858Z,20.60
2023-01-28T01:43:25.793Z,20.38
2023-01-28T01:45:56.521Z,20.73
2023-01-28T01:48:26.223Z,20.55
2023-01-28T01:50:56.345Z,22.70
2023-01-28T01:53:26.207Z,20.52
2023-01-28T01:55:58.002Z,20.00
2023-01-28T01:58:28.751Z,19.80
2023-01-28T02:00:57.248Z,20.45
2023-01-28T02:03:29.162Z,20.77
2023-01-28T02:08:25.627Z,19.70
2023-01-28T02:10:56.677Z,21.75
2023-01-28T02:13:26.960Z,20.90
2023-01-28T02:15:55.012Z,20.60
2023-01-28T02:18:22.712Z,18.83
2023-01-28T02:21:06.212Z,20.90
2023-01-28T02:23:46.356Z,22.98
2023-01-28T02:26:44.895Z,21.88
2023-01-28T02:29:17.540Z,20.05
2023-01-28T02:31:49.138Z,20.90
2023-01-28T02:34:22.528Z,22.00
2023-01-28T02:36:53.803Z,23.25
2023-01-28T02:39:24.532Z,16.90
2023-01-28T02:41:54.879Z,22.52
2023-01-28T02:44:23.882Z,21.30
2023-01-28T02:47:11.573Z,23.95
2023-01-28T02:49:43.192Z,21.98
2023-01-28T02:52:45.909Z,19.15
2023-01-28T02:55:19.822Z,22.77
2023-01-28T02:57:53.679Z,20.67
2023-01-28T03:00:26.045Z,18.65
2023-01-28T03:03:00.788Z,21.08
2023-01-28T03:05:31.492Z,21.98
2023-01-28T03:07:59.138Z,21.27
2023-01-28T03:10:26.925Z,21.55
2023-01-28T03:13:13.642Z,23.38
2023-01-28T03:16:03.407Z,20.52
2023-01-28T03:18:51.860Z,21.40
2023-01-28T03:21:40.680Z,22.27
2023-01-28T03:24:29.537Z,25.02
2023-01-28T03:27:16.858Z,21.50
2023-01-28T03:30:02.645Z,21.77
2023-01-28T03:32:49.283Z,22.95
2023-01-28T03:35:36.609Z,21.15
2023-01-28T03:38:18.030Z,23.30
2023-01-28T03:40:50.959Z,16.92
2023-01-28T03:43:18.685Z,20.63
2023-01-28T03:45:51.561Z,20.98
2023-01-28T03:48:20.951Z,21.98
2023-01-28T03:50:49.110Z,21.65
2023-01-28T03:53:17.237Z,18.90
2023-01-28T03:55:45.609Z,22.95
2023-01-28T03:58:15.429Z,20.27
2023-01-28T04:00:43.739Z,19.67
2023-01-28T04:03:17.001Z,21.67
2023-01-28T04:05:47.419Z,21.10
2023-01-28T04:08:15.188Z,19.52
2023-01-28T04:10:43.900Z,21.83
2023-01-28T04:13:13.462Z,20.40
2023-01-28T04:15:41.256Z,19.48
2023-01-28T04:18:08.947Z,19.67
2023-01-28T04:20:37.433Z,21.65
2023-01-28T04:23:07.016Z,20.50
2023-01-28T04:25:35.291Z,18.65
2023-01-28T04:28:03.191Z,19.50
2023-01-28T04:30:31.562Z,21.45
2023-01-28T04:32:59.153Z,20.02
2023-01-28T04:35:26.765Z,21.77
2023-01-28T04:37:54.328Z,21.20
2023-01-28T04:40:23.411Z,19.10
2023-01-28T04:42:54.398Z,18.77
2023-01-28T04:45:22.202Z,19.37
2023-01-28T04:47:49.859Z,20.60
2023-01-28T04:50:18.212Z,19.10
2023-01-28T04:52:45.802Z,19.85
2023-01-28T04:55:13.723Z,20.15
2023-01-28T04:57:42.880Z,22.52
2023-01-28T05:00:11.507Z,19.60
2023-01-28T05:02:39.072Z,20.52
2023-01-28T05:05:08.945Z,21.25
2023-01-28T05:07:36.670Z,19.42
2023-01-28T05:10:04.805Z,20.85
2023-01-28T05:12:33.029Z,21.70
2023-01-28T05:15:01.960Z,21.30
2023-01-28T05:17:30.214Z,22.33
2023-01-28T05:19:57.890Z,21.77
2023-01-28T05:22:25.530Z,22.70
2023-01-28T05:24:53.113Z,18.85
2023-01-28T05:27:20.750Z,20.25
2023-01-28T05:29:48.397Z,23.60
2023-01-28T05:32:17.450Z,21.70
2023-01-28T05:34:45.138Z,22.17
2023-01-28T05:37:12.819Z,20.05
2023-01-28T05:39:40.435Z,21.35
2023-01-28T05:42:08.178Z,21.58
2023-01-28T05:44:36.354Z,20.00
2023-01-28T05:47:04.037Z,20.65
2023-01-28T05:49:32.987Z,20.42
2023-01-28T05:52:01.467Z,22.48
2023-01-28T05:54:29.281Z,17.70
2023-01-28T05:56:56.949Z,19.38
2023-01-28T05:59:24.632Z,20.70
2023-01-28T06:01:52.272Z,17.95
2023-01-28T06:04:20.226Z,18.98
2023-01-28T06:06:49.258Z,20.15
2023-01-28T06:09:16.921Z,16.67
2023-01-28T06:11:45.648Z,20.15
2023-01-28T06:14:13.277Z,19.70
2023-01-28T06:16:41.011Z,18.33
2023-01-28T06:19:08.676Z,17.35
2023-01-28T06:21:36.366Z,17.50
2023-01-28T06:24:05.472Z,19.95
2023-01-28T06:26:33.252Z,18.75
2023-01-28T06:29:00.880Z,18.70
2023-01-28T06:31:28.504Z,20.20
2023-01-28T06:33:56.263Z,18.15
2023-01-28T06:36:24.093Z,18.13
2023-01-28T06:38:51.708Z,19.70
2023-01-28T06:41:24.040Z,20.45
2023-01-28T06:43:51.629Z,21.25
2023-01-28T06:46:19.495Z,21.25
2023-01-28T06:48:47.145Z,19.35
2023-01-28T06:51:14.814Z,18.58
2023-01-28T06:53:43.254Z,17.38
2023-01-28T06:56:12.291Z,19.60
2023-01-28T06:58:41.259Z,21.77
2023-01-28T07:01:08.871Z,19.38
2023-01-28T07:03:37.543Z,18.73
2023-01-28T07:06:05.685Z,22.23
2023-01-28T07:08:33.469Z,19.25
2023-01-28T07:11:01.756Z,19.92
2023-01-28T07:13:29.358Z,20.52
2023-01-28T07:15:58.348Z,21.23
2023-01-28T07:18:26.063Z,19.48
2023-01-28T07:20:53.815Z,19.75
2023-01-28T07:23:21.433Z,18.67
2023-01-28T07:25:49.082Z,19.38
2023-01-28T07:28:21.251Z,14.68
2023-01-28T07:30:52.552Z,18.08
2023-01-28T07:33:22.559Z,19.95
2023-01-28T07:35:50.267Z,20.13
2023-01-28T07:38:17.957Z,20.23
2023-01-28T07:40:45.845Z,17.40
2023-01-28T07:43:13.531Z,18.23
2023-01-28T07:45:41.202Z,17.55
2023-01-28T07:48:10.635Z,19.85
2023-01-28T07:50:41.999Z,18.65
2023-01-28T07:53:11.627Z,19.90
2023-01-28T07:55:39.406Z,16.77
2023-01-28T07:58:08.318Z,19.65
2023-01-28T08:00:37.422Z,18.40
2023-01-28T08:03:06.889Z,21.92
2023-01-28T08:05:43.390Z,18.63
2023-01-28T08:08:11.468Z,17.80
2023-01-28T08:10:44.026Z,18.60
2023-01-28T08:13:12.626Z,18.75
2023-01-28T08:15:40.906Z,20.52
2023-01-28T08:18:09.799Z,20.20
2023-01-28T08:20:37.533Z,20.33
2023-01-28T08:23:10.855Z,20.05
2023-01-28T08:25:38.653Z,20.77
2023-01-28T08:28:06.820Z,21.52
2023-01-28T08:30:35.113Z,20.73
2023-01-28T08:33:02.975Z,23.23
2023-01-28T08:35:30.959Z,20.60
2023-01-28T08:38:00.792Z,19.95
2023-01-28T08:40:30.315Z,23.13
2023-01-28T08:42:58.127Z,20.35
2023-01-28T08:45:28.721Z,19.10
2023-01-28T08:47:57.886Z,23.98
2023-01-28T08:50:26.759Z,23.13
2023-01-28T08:52:58.234Z,20.42
2023-01-28T08:55:26.421Z,21.35
2023-01-28T08:57:58.210Z,20.27
2023-01-28T09:00:26.385Z,18.88
2023-01-28T09:02:54.676Z,20.60
2023-01-28T09:05:22.913Z,17.85
2023-01-28T09:07:50.915Z,19.73
2023-01-28T09:10:20.444Z,18.33
2023-01-28T09:12:48.116Z,19.60
2023-01-28T09:15:17.252Z,18.17
2023-01-28T09:17:44.893Z,18.63
2023-01-28T09:20:14.238Z,17.25
2023-01-28T09:22:41.970Z,20.38
2023-01-28T09:25:10.299Z,19.70
2023-01-28T09:27:37.885Z,19.15
2023-01-28T09:30:07.125Z,20.55
2023-01-28T09:32:36.148Z,18.95
2023-01-28T09:35:03.887Z,19.58
2023-01-28T09:37:31.505Z,18.30
2023-01-28T09:39:59.128Z,17.65
2023-01-28T09:42:41.070Z,18.50
2023-01-28T09:45:16.074Z,17.83
2023-01-28T09:47:47.856Z,16.85
2023-01-28T09:50:17.817Z,16.20
2023-01-28T09:52:46.464Z,16.15
2023-01-28T09:55:19.570Z,17.52
2023-01-28T09:57:49.374Z,16.58
2023-01-28T10:00:20.041Z,16.45
2023-01-28T10:03:02.059Z,17.25
2023-01-28T10:05:34.891Z,17.33
2023-01-28T10:08:10.014Z,17.83
2023-01-28T10:10:42.079Z,17.00
2023-01-28T10:15:55.599Z,17.35
2023-01-28T10:18:32.105Z,16.75
2023-01-28T10:21:06.152Z,16.30
2023-01-28T10:23:41.203Z,18.70
2023-01-28T10:26:18.293Z,18.40
2023-01-28T10:28:46.418Z,18.05
2023-01-28T10:31:15.144Z,17.83
2023-01-28T10:33:44.190Z,16.98
2023-01-28T10:36:11.835Z,16.00
2023-01-28T10:38:39.488Z,17.48
2023-01-28T10:41:08.936Z,20.02
2023-01-28T10:43:38.579Z,19.77
2023-01-28T10:46:09.284Z,17.80
2023-01-28T10:48:40.093Z,17.52
2023-01-28T10:51:09.033Z,17.83
2023-01-28T10:53:37.914Z,17.23
2023-01-28T10:56:07.333Z,17.70
2023-01-28T10:58:37.623Z,17.73
2023-01-28T11:01:07.496Z,16.40
2023-01-28T11:03:35.901Z,15.25
2023-01-28T11:06:04.380Z,17.17
2023-01-28T11:08:44.549Z,17.90
2023-01-28T11:11:15.723Z,16.20
2023-01-28T11:13:51.932Z,15.75
2023-01-28T11:16:20.124Z,15.88
2023-01-28T11:18:49.895Z,14.35
2023-01-28T11:21:19.808Z,15.48
2023-01-28T11:23:52.674Z,16.67
2023-01-28T11:26:22.409Z,16.23
2023-01-28T11:28:50.517Z,15.00
2023-01-28T11:31:19.305Z,15.02
2023-01-28T11:33:50.556Z,15.75
2023-01-28T11:36:20.224Z,17.40
2023-01-28T11:38:54.617Z,17.60
2023-01-28T11:41:28.979Z,17.33
2023-01-28T11:43:56.893Z,16.67
2023-01-28T11:46:48.528Z,18.05
2023-01-28T11:49:23.350Z,18.37
2023-01-28T11:51:55.942Z,17.08
2023-01-28T11:54:34.275Z,18.10
2023-01-28T11:57:15.866Z,16.75
2023-01-28T11:59:55.857Z,12.63
2023-01-28T12:02:40.420Z,17.98
2023-01-28T12:05:20.756Z,16.77
2023-01-28T12:07:55.533Z,16.63
2023-01-28T12:10:30.261Z,19.77
2023-01-28T12:13:13.283Z,18.05
2023-01-28T12:16:00.161Z,16.73
2023-01-28T12:18:42.260Z,18.15
2023-01-28T12:21:12.787Z,16.10
2023-01-28T12:23:52.108Z,17.20
2023-01-28T12:26:28.287Z,18.60
2023-01-28T12:29:08.358Z,16.73
2023-01-28T12:31:54.093Z,17.30
2023-01-28T12:34:54.348Z,18.13
2023-01-28T12:37:29.039Z,16.00
2023-01-28T12:40:07.842Z,18.33
2023-01-28T12:42:40.511Z,16.42
2023-01-28T12:45:16.432Z,17.63
2023-01-28T12:47:49.269Z,17.60
2023-01-28T12:50:20.983Z,18.52
2023-01-28T12:52:51.614Z,19.45
2023-01-28T12:55:22.270Z,16.90
2023-01-28T12:57:53.622Z,18.65
2023-01-28T13:00:27.352Z,18.15
2023-01-28T13:02:59.537Z,16.70
2023-01-28T13:05:32.791Z,19.15
2023-01-28T13:08:03.413Z,18.00
2023-01-28T13:10:36.411Z,18.40
2023-01-28T13:13:05.839Z,17.55
2023-01-28T13:15:33.742Z,18.42
2023-01-28T13:18:02.600Z,17.92
2023-01-28T13:20:37.636Z,17.27
2023-01-28T13:23:07.544Z,18.95
2023-01-28T13:25:36.010Z,16.52
2023-01-28T13:28:06.798Z,16.70
2023-01-28T13:30:36.097Z,16.77
2023-01-28T13:33:05.483Z,17.40
2023-01-28T13:35:35.645Z,19.95
2023-01-28T13:38:11.744Z,17.88
2023-01-28T13:40:40.244Z,17.15
2023-01-28T13:43:38.058Z,17.35
2023-01-28T13:46:09.000Z,19.73
2023-01-28T13:48:42.990Z,17.10
2023-01-28T13:51:20.074Z,16.25
2023-01-28T13:53:50.620Z,16.27
2023-01-28T13:56:22.441Z,15.57
2023-01-28T13:59:19.135Z,15.70
2023-01-28T14:01:56.644Z,15.80
2023-01-28T14:04:42.472Z,16.48
2023-01-28T14:07:18.366Z,16.20
2023-01-28T14:10:00.238Z,17.55
2023-01-28T14:12:52.589Z,16.27
2023-01-28T14:15:43.805Z,12.25
2023-01-28T14:18:16.780Z,15.98
2023-01-28T14:20:45.991Z,15.60
2023-01-28T14:23:18.934Z,15.27
2023-01-28T14:25:57.598Z,15.05
2023-01-28T14:28:41.954Z,16.63
2023-01-28T14:31:13.539Z,16.17
2023-01-28T14:33:42.110Z,14.93
2023-01-28T14:36:11.470Z,16.50
2023-01-28T14:38:41.310Z,9.77
2023-01-28T14:41:09.684Z,14.93
2023-01-28T14:43:38.046Z,14.23
2023-01-28T14:46:17.030Z,16.00
2023-01-28T14:48:50.679Z,16.58
2023-01-28T14:51:30.379Z,15.43
2023-01-28T14:54:11.775Z,18.70
2023-01-28T14:56:51.163Z,21.33
2023-01-28T14:59:21.303Z,18.40
2023-01-28T15:01:55.455Z,17.50
2023-01-28T15:04:25.588Z,17.35
2023-01-28T15:06:53.293Z,15.95
2023-01-28T15:09:24.228Z,18.23
2023-01-28T15:11:55.047Z,16.40
2023-01-28T15:14:27.371Z,17.50
2023-01-28T15:16:56.746Z,16.13
2023-01-28T15:19:29.418Z,16.17
2023-01-28T15:21:58.044Z,18.52
2023-01-28T15:24:26.169Z,15.77
2023-01-28T15:26:54.132Z,15.35
2023-01-28T15:29:25.533Z,16.40
2023-01-28T15:31:53.578Z,16.58
2023-01-28T15:34:23.545Z,17.20
2023-01-28T15:36:51.216Z,18.05
2023-01-28T15:39:20.547Z,16.08
2023-01-28T15:41:50.395Z,16.48
2023-01-28T15:44:19.637Z,14.40
2023-01-28T15:46:47.288Z,15.77
2023-01-28T15:49:15.853Z,16.90
2023-01-28T15:51:50.911Z,17.70
2023-01-28T15:54:18.717Z,16.83
2023-01-28T15:56:46.506Z,17.23
2023-01-28T15:59:20.867Z,18.33
2023-01-28T16:01:48.507Z,17.33
2023-01-28T16:04:27.002Z,16.40
2023-01-28T16:06:57.353Z,17.25
2023-01-28T16:09:27.953Z,17.13
2023-01-28T16:12:02.673Z,18.38
2023-01-28T16:14:32.151Z,19.23
2023-01-28T16:16:59.775Z,18.00
2023-01-28T16:19:33.433Z,18.65
2023-01-28T16:22:02.615Z,18.55
2023-01-28T16:24:32.324Z,19.27
2023-01-28T16:27:01.560Z,22.52
2023-01-28T16:29:31.054Z,23.33
2023-01-28T16:32:00.497Z,19.30
2023-01-28T16:34:28.568Z,19.08
2023-01-28T16:36:58.645Z,19.35
2023-01-28T16:39:27.612Z,19.38
2023-01-28T16:41:56.911Z,19.42
2023-01-28T16:44:24.598Z,19.13
2023-01-28T16:46:52.360Z,16.83
2023-01-28T16:49:20.019Z,17.48
2023-01-28T16:51:47.620Z,18.45
2023-01-28T16:54:17.457Z,17.30
2023-01-28T16:56:47.079Z,18.75
2023-01-28T16:59:15.904Z,17.63
2023-01-28T17:01:43.764Z,17.48
2023-01-28T17:04:12.732Z,17.65
2023-01-28T17:06:42.888Z,18.42
2023-01-28T17:09:11.091Z,16.02
2023-01-28T17:11:39.650Z,18.60
2023-01-28T17:14:09.121Z,18.30
2023-01-28T17:16:36.957Z,17.30
2023-01-28T17:19:04.795Z,16.67
2023-01-28T17:21:32.615Z,18.13
2023-01-28T17:24:01.275Z,19.25
2023-01-28T17:26:29.906Z,19.60
2023-01-28T17:28:57.648Z,18.35
2023-01-28T17:31:27.340Z,18.67
2023-01-28T17:33:56.362Z,17.70
2023-01-28T17:36:24.360Z,17.45
2023-01-28T17:38:52.007Z,19.50
2023-01-28T17:41:20.058Z,19.13
2023-01-28T17:43:51.324Z,18.25
2023-01-28T17:46:19.293Z,14.38
2023-01-28T17:48:48.990Z,18.27
2023-01-28T17:51:18.679Z,20.40
2023-01-28T17:53:48.447Z,18.17
2023-01-28T17:56:18.013Z,20.52
2023-01-28T17:58:50.553Z,20.23
2023-01-28T18:01:18.364Z,19.52
2023-01-28T18:03:45.981Z,20.55
2023-01-28T18:06:15.029Z,24.73
2023-01-28T18:08:42.666Z,30.23
2023-01-28T18:11:10.839Z,27.80
2023-01-28T18:13:38.968Z,20.77
2023-01-28T18:16:08.402Z,19.55
2023-01-28T18:18:36.365Z,22.00
2023-01-28T18:21:05.968Z,18.58
2023-01-28T18:23:35.538Z,18.58
2023-01-28T18:26:07.259Z,17.45
2023-01-28T18:28:34.881Z,20.90
2023-01-28T18:31:05.936Z,16.50
2023-01-28T18:33:33.496Z,12.50
2023-01-28T18:36:01.101Z,18.70
2023-01-28T18:38:28.745Z,17.70
2023-01-28T18:40:57.898Z,16.80
2023-01-28T18:43:26.365Z,19.50
2023-01-28T18:45:54.067Z,17.63
2023-01-28T18:48:22.028Z,19.88
2023-01-28T18:50:53.381Z,19.02
2023-01-28T18:53:21.442Z,12.98
2023-01-28T18:55:49.362Z,17.52
2023-01-28T18:58:18.627Z,17.25
2023-01-28T19:00:46.345Z,18.25
2023-01-28T19:03:14.029Z,15.90
2023-01-28T19:05:41.636Z,16.95
2023-01-28T19:08:09.689Z,19.33
2023-01-28T19:10:37.542Z,18.08
2023-01-28T19:13:05.524Z,17.15
2023-01-28T19:15:34.599Z,17.00
2023-01-28T19:18:03.350Z,18.35
2023-01-28T19:20:31.158Z,20.13
2023-01-28T19:22:58.789Z,18.50
2023-01-28T19:25:26.402Z,18.20
2023-01-28T19:27:54.788Z,19.95
2023-01-28T19:30:22.728Z,19.05
2023-01-28T19:32:53.930Z,19.15
2023-01-28T19:35:21.651Z,18.92
2023-01-28T19:37:49.269Z,20.30
2023-01-28T19:40:17.681Z,18.92
2023-01-28T19:42:45.989Z,19.13
2023-01-28T19:45:13.968Z,23.80
2023-01-28T19:47:42.066Z,19.88
2023-01-28T19:50:12.636Z,19.67
2023-01-28T19:52:40.378Z,17.75
2023-01-28T19:55:32.042Z,18.05
2023-01-28T19:57:59.743Z,15.63
2023-01-28T20:00:29.382Z,21.70
2023-01-28T20:02:57.209Z,19.90
2023-01-28T20:05:26.546Z,21.50
2023-01-28T20:07:54.189Z,19.17
2023-01-28T20:10:21.843Z,18.30
2023-01-28T20:12:49.445Z,18.17
2023-01-28T20:15:17.528Z,18.95
2023-01-28T20:17:45.403Z,19.52
2023-01-28T20:20:14.451Z,20.98
2023-01-28T20:22:43.746Z,18.23
2023-01-28T20:25:11.478Z,17.90
2023-01-28T20:27:39.097Z,19.42
2023-01-28T20:30:07.846Z,18.40
2023-01-28T20:32:35.672Z,19.73
2023-01-28T20:35:03.263Z,18.83
2023-01-28T20:37:30.901Z,19.30
2023-01-28T20:40:00.005Z,18.73
2023-01-28T20:42:27.851Z,17.52
2023-01-28T20:44:55.565Z,19.10
2023-01-28T20:47:23.183Z,19.02
2023-01-28T20:49:51.272Z,17.27
2023-01-28T20:52:19.199Z,18.08
2023-01-28T20:54:47.212Z,17.65
2023-01-28T20:57:16.195Z,19.65
2023-01-28T20:59:43.800Z,19.95
2023-01-28T21:02:14.729Z,21.42
2023-01-28T21:04:42.325Z,21.58
2023-01-28T21:07:12.677Z,20.42
2023-01-28T21:09:40.610Z,19.38
2023-01-28T21:12:09.201Z,22.40
2023-01-28T21:14:38.377Z,21.25
2023-01-28T21:17:06.142Z,23.88
2023-01-28T21:19:33.860Z,20.55
2023-01-28T21:22:01.479Z,21.35
2023-01-28T21:24:29.273Z,22.15
2023-01-28T21:26:56.951Z,20.05
2023-01-28T21:29:24.742Z,21.02
2023-01-28T21:31:55.729Z,20.33
2023-01-28T21:34:24.742Z,21.33
2023-01-28T21:36:52.349Z,20.70
2023-01-28T21:39:20.126Z,21.40
2023-01-28T21:41:48.745Z,18.70
2023-01-28T21:44:16.304Z,18.70
2023-01-28T21:46:44.013Z,19.25
2023-01-28T21:49:13.020Z,19.30
2023-01-28T21:51:45.928Z,17.55
2023-01-28T21:54:15.312Z,18.95
2023-01-28T21:56:43.830Z,17.52
2023-01-28T21:59:30.217Z,17.50
2023-01-28T22:01:58.777Z,19.10
2023-01-28T22:04:29.094Z,18.33
2023-01-28T22:06:57.132Z,18.45
2023-01-28T22:09:25.154Z,19.67
2023-01-28T22:11:52.925Z,19.23
2023-01-28T22:14:20.721Z,20.08
2023-01-28T22:16:49.039Z,20.77
2023-01-28T22:19:16.822Z,19.05
2023-01-28T22:21:46.923Z,22.13
2023-01-28T22:24:16.234Z,21.67
2023-01-28T22:26:44.773Z,20.73
2023-01-28T22:29:12.979Z,21.73
2023-01-28T22:31:41.081Z,20.02
2023-01-28T22:34:09.101Z,20.85
2023-01-28T22:36:37.314Z,21.98
2023-01-28T22:39:08.081Z,20.85
2023-01-28T22:41:35.873Z,21.35
2023-01-28T22:44:04.370Z,21.42
2023-01-28T22:46:33.394Z,21.45
2023-01-28T22:49:01.370Z,19.98
2023-01-28T22:51:30.915Z,19.67
2023-01-28T22:53:58.614Z,22.80
2023-01-28T22:56:28.835Z,20.23
2023-01-28T22:58:57.138Z,18.08
2023-01-28T23:01:24.837Z,18.40
2023-01-28T23:03:53.236Z,17.33
2023-01-28T23:06:22.368Z,18.17
2023-01-28T23:08:51.746Z,22.35
2023-01-28T23:11:27.195Z,20.67
2023-01-28T23:14:15.687Z,20.05
2023-01-28T23:17:01.130Z,19.17
2023-01-28T23:19:58.109Z,18.98
2023-01-28T23:22:45.615Z,20.13
2023-01-28T23:25:13.651Z,20.95
2023-01-28T23:27:41.320Z,19.48
2023-01-28T23:30:12.310Z,19.98
2023-01-28T23:32:42.046Z,16.73
2023-01-28T23:35:10.404Z,17.02
2023-01-28T23:37:38.418Z,14.50
2023-01-28T23:40:07.299Z,16.05
2023-01-28T23:42:35.169Z,15.07
2023-01-28T23:45:02.848Z,18.52
2023-01-28T23:47:31.924Z,24.73
2023-01-28T23:49:59.695Z,20.58
2023-01-28T23:52:27.695Z,16.75
2023-01-28T23:54:56.162Z,18.13
2023-01-28T23:57:23.840Z,20.08
2023-01-28T23:59:51.798Z,17.70
